sensor_id;sensor_type;location;lat;lon;timestamp;P1;durP1;ratioP1;P2;durP2;ratioP2
56045;SDS011;41913;51.030;3.706;2023-05-07T00:00:19;3.55;;;1.27;;
56045;SDS011;41913;51.030;3.706;2023-05-07T00:02:45;2.75;;;1.10;;
56045;SDS011;41913;51.030;3.706;2023-05-07T00:05:11;1.20;;;1.10;;
56045;SDS011;41913;51.030;3.706;2023-05-07T00:07:37;2.80;;;1.60;;
56045;SDS011;41913;51.030;3.706;2023-05-07T00:10:04;2.20;;;1.17;;
56045;SDS011;41913;51.030;3.706;2023-05-07T00:12:31;1.30;;;1.30;;
56045;SDS011;41913;51.030;3.706;2023-05-07T00:14:59;1.17;;;1.08;;
56045;SDS011;41913;51.030;3.706;2023-05-07T00:17:25;1.50;;;1.40;;
56045;SDS011;41913;51.030;3.706;2023-05-07T00:19:53;1.10;;;1.10;;
56045;SDS011;41913;51.030;3.706;2023-05-07T00:22:20;1.42;;;1.20;;
56045;SDS011;41913;51.030;3.706;2023-05-07T00:24:46;2.33;;;1.45;;
56045;SDS011;41913;51.030;3.706;2023-05-07T00:27:12;3.85;;;1.58;;
56045;SDS011;41913;51.030;3.706;2023-05-07T00:29:38;1.40;;;1.10;;
56045;SDS011;41913;51.030;3.706;2023-05-07T00:32:04;4.05;;;1.48;;
56045;SDS011;41913;51.030;3.706;2023-05-07T00:34:30;1.30;;;1.20;;
56045;SDS011;41913;51.030;3.706;2023-05-07T00:36:56;2.28;;;1.67;;
56045;SDS011;41913;51.030;3.706;2023-05-07T00:39:21;2.42;;;1.30;;
56045;SDS011;41913;51.030;3.706;2023-05-07T00:41:47;1.75;;;1.30;;
56045;SDS011;41913;51.030;3.706;2023-05-07T00:44:13;5.28;;;1.40;;
56045;SDS011;41913;51.030;3.706;2023-05-07T00:46:39;2.28;;;1.30;;
56045;SDS011;41913;51.030;3.706;2023-05-07T00:49:05;3.63;;;1.50;;
56045;SDS011;41913;51.030;3.706;2023-05-07T00:51:32;2.03;;;1.25;;
56045;SDS011;41913;51.030;3.706;2023-05-07T00:53:59;3.72;;;1.30;;
56045;SDS011;41913;51.030;3.706;2023-05-07T00:56:26;2.10;;;1.20;;
56045;SDS011;41913;51.030;3.706;2023-05-07T00:58:52;1.52;;;1.15;;
56045;SDS011;41913;51.030;3.706;2023-05-07T01:01:18;1.40;;;1.17;;
56045;SDS011;41913;51.030;3.706;2023-05-07T01:03:44;1.98;;;1.23;;
56045;SDS011;41913;51.030;3.706;2023-05-07T01:06:10;4.40;;;1.50;;
56045;SDS011;41913;51.030;3.706;2023-05-07T01:08:38;2.15;;;1.08;;
56045;SDS011;41913;51.030;3.706;2023-05-07T01:11:05;1.95;;;1.40;;
56045;SDS011;41913;51.030;3.706;2023-05-07T01:13:32;1.30;;;1.20;;
56045;SDS011;41913;51.030;3.706;2023-05-07T01:15:59;1.60;;;1.35;;
56045;SDS011;41913;51.030;3.706;2023-05-07T01:18:25;2.10;;;1.70;;
56045;SDS011;41913;51.030;3.706;2023-05-07T01:20:51;1.83;;;1.10;;
56045;SDS011;41913;51.030;3.706;2023-05-07T01:23:17;1.75;;;1.23;;
56045;SDS011;41913;51.030;3.706;2023-05-07T01:25:50;1.42;;;1.25;;
56045;SDS011;41913;51.030;3.706;2023-05-07T01:28:17;2.60;;;1.55;;
56045;SDS011;41913;51.030;3.706;2023-05-07T01:30:42;1.60;;;1.40;;
56045;SDS011;41913;51.030;3.706;2023-05-07T01:33:13;1.38;;;1.30;;
56045;SDS011;41913;51.030;3.706;2023-05-07T01:35:43;1.33;;;1.15;;
56045;SDS011;41913;51.030;3.706;2023-05-07T01:38:12;1.35;;;1.25;;
56045;SDS011;41913;51.030;3.706;2023-05-07T01:40:38;1.75;;;1.63;;
56045;SDS011;41913;51.030;3.706;2023-05-07T01:43:04;3.30;;;1.38;;
56045;SDS011;41913;51.030;3.706;2023-05-07T01:45:31;1.30;;;1.20;;
56045;SDS011;41913;51.030;3.706;2023-05-07T01:47:58;1.73;;;1.58;;
56045;SDS011;41913;51.030;3.706;2023-05-07T01:50:24;1.75;;;1.55;;
56045;SDS011;41913;51.030;3.706;2023-05-07T01:52:52;2.95;;;1.23;;
56045;SDS011;41913;51.030;3.706;2023-05-07T01:55:17;1.77;;;1.20;;
56045;SDS011;41913;51.030;3.706;2023-05-07T01:57:44;1.27;;;1.08;;
56045;SDS011;41913;51.030;3.706;2023-05-07T02:00:10;3.30;;;1.23;;
56045;SDS011;41913;51.030;3.706;2023-05-07T02:02:36;3.75;;;1.63;;
56045;SDS011;41913;51.030;3.706;2023-05-07T02:05:03;1.40;;;1.30;;
56045;SDS011;41913;51.030;3.706;2023-05-07T02:07:29;1.65;;;1.30;;
56045;SDS011;41913;51.030;3.706;2023-05-07T02:09:56;2.30;;;1.63;;
56045;SDS011;41913;51.030;3.706;2023-05-07T02:12:22;1.30;;;1.20;;
56045;SDS011;41913;51.030;3.706;2023-05-07T02:14:48;1.80;;;1.10;;
56045;SDS011;41913;51.030;3.706;2023-05-07T02:17:14;2.53;;;1.27;;
56045;SDS011;41913;51.030;3.706;2023-05-07T02:19:40;2.78;;;1.48;;
56045;SDS011;41913;51.030;3.706;2023-05-07T02:22:05;2.70;;;1.48;;
56045;SDS011;41913;51.030;3.706;2023-05-07T02:24:31;1.98;;;1.13;;
56045;SDS011;41913;51.030;3.706;2023-05-07T02:26:57;2.42;;;1.63;;
56045;SDS011;41913;51.030;3.706;2023-05-07T02:29:23;2.55;;;1.52;;
56045;SDS011;41913;51.030;3.706;2023-05-07T02:31:48;5.07;;;1.67;;
56045;SDS011;41913;51.030;3.706;2023-05-07T02:34:16;1.60;;;1.42;;
56045;SDS011;41913;51.030;3.706;2023-05-07T02:36:43;1.92;;;1.27;;
56045;SDS011;41913;51.030;3.706;2023-05-07T02:39:08;3.58;;;1.60;;
56045;SDS011;41913;51.030;3.706;2023-05-07T02:41:34;2.15;;;1.48;;
56045;SDS011;41913;51.030;3.706;2023-05-07T02:44:00;1.70;;;1.35;;
56045;SDS011;41913;51.030;3.706;2023-05-07T02:46:25;1.75;;;1.45;;
56045;SDS011;41913;51.030;3.706;2023-05-07T02:48:51;1.65;;;1.30;;
56045;SDS011;41913;51.030;3.706;2023-05-07T02:51:20;1.27;;;1.08;;
56045;SDS011;41913;51.030;3.706;2023-05-07T02:53:46;1.42;;;1.33;;
56045;SDS011;41913;51.030;3.706;2023-05-07T02:56:12;2.75;;;1.58;;
56045;SDS011;41913;51.030;3.706;2023-05-07T02:58:38;2.95;;;1.60;;
56045;SDS011;41913;51.030;3.706;2023-05-07T03:01:04;1.50;;;1.40;;
56045;SDS011;41913;51.030;3.706;2023-05-07T03:03:31;4.78;;;1.70;;
56045;SDS011;41913;51.030;3.706;2023-05-07T03:05:56;2.03;;;1.70;;
56045;SDS011;41913;51.030;3.706;2023-05-07T03:08:22;1.38;;;1.27;;
56045;SDS011;41913;51.030;3.706;2023-05-07T03:10:48;3.58;;;1.40;;
56045;SDS011;41913;51.030;3.706;2023-05-07T03:13:14;1.70;;;1.45;;
56045;SDS011;41913;51.030;3.706;2023-05-07T03:15:39;3.58;;;1.67;;
56045;SDS011;41913;51.030;3.706;2023-05-07T03:18:05;1.42;;;1.33;;
56045;SDS011;41913;51.030;3.706;2023-05-07T03:20:31;3.88;;;1.73;;
56045;SDS011;41913;51.030;3.706;2023-05-07T03:22:57;2.10;;;1.60;;
56045;SDS011;41913;51.030;3.706;2023-05-07T03:25:22;2.58;;;1.15;;
56045;SDS011;41913;51.030;3.706;2023-05-07T03:27:48;1.75;;;1.60;;
56045;SDS011;41913;51.030;3.706;2023-05-07T03:30:14;3.15;;;1.65;;
56045;SDS011;41913;51.030;3.706;2023-05-07T03:32:40;3.08;;;1.70;;
56045;SDS011;41913;51.030;3.706;2023-05-07T03:35:05;1.30;;;1.20;;
56045;SDS011;41913;51.030;3.706;2023-05-07T03:37:32;2.97;;;1.75;;
56045;SDS011;41913;51.030;3.706;2023-05-07T03:39:57;1.58;;;1.25;;
56045;SDS011;41913;51.030;3.706;2023-05-07T03:42:23;2.05;;;1.48;;
56045;SDS011;41913;51.030;3.706;2023-05-07T03:44:49;2.92;;;1.52;;
56045;SDS011;41913;51.030;3.706;2023-05-07T03:47:14;1.55;;;1.45;;
56045;SDS011;41913;51.030;3.706;2023-05-07T03:49:40;2.17;;;1.42;;
56045;SDS011;41913;51.030;3.706;2023-05-07T03:52:06;2.30;;;1.77;;
56045;SDS011;41913;51.030;3.706;2023-05-07T03:54:32;1.40;;;1.30;;
56045;SDS011;41913;51.030;3.706;2023-05-07T03:56:57;2.22;;;1.73;;
56045;SDS011;41913;51.030;3.706;2023-05-07T03:59:23;3.05;;;1.88;;
56045;SDS011;41913;51.030;3.706;2023-05-07T04:01:50;4.43;;;1.65;;
56045;SDS011;41913;51.030;3.706;2023-05-07T04:04:16;1.85;;;1.50;;
56045;SDS011;41913;51.030;3.706;2023-05-07T04:06:41;3.08;;;1.92;;
56045;SDS011;41913;51.030;3.706;2023-05-07T04:09:07;3.85;;;1.42;;
56045;SDS011;41913;51.030;3.706;2023-05-07T04:11:34;1.63;;;1.50;;
56045;SDS011;41913;51.030;3.706;2023-05-07T04:14:01;1.58;;;1.48;;
56045;SDS011;41913;51.030;3.706;2023-05-07T04:16:27;1.48;;;1.38;;
56045;SDS011;41913;51.030;3.706;2023-05-07T04:18:52;4.32;;;1.60;;
56045;SDS011;41913;51.030;3.706;2023-05-07T04:21:19;2.72;;;1.88;;
56045;SDS011;41913;51.030;3.706;2023-05-07T04:23:46;1.35;;;1.25;;
56045;SDS011;41913;51.030;3.706;2023-05-07T04:26:13;2.95;;;1.30;;
56045;SDS011;41913;51.030;3.706;2023-05-07T04:28:39;4.63;;;1.50;;
56045;SDS011;41913;51.030;3.706;2023-05-07T04:31:05;1.40;;;1.30;;
56045;SDS011;41913;51.030;3.706;2023-05-07T04:33:31;1.10;;;1.10;;
56045;SDS011;41913;51.030;3.706;2023-05-07T04:35:58;1.30;;;1.20;;
56045;SDS011;41913;51.030;3.706;2023-05-07T04:38:28;3.08;;;1.70;;
56045;SDS011;41913;51.030;3.706;2023-05-07T04:40:55;1.77;;;1.33;;
56045;SDS011;41913;51.030;3.706;2023-05-07T04:43:22;2.50;;;1.25;;
56045;SDS011;41913;51.030;3.706;2023-05-07T04:45:49;3.85;;;1.48;;
56045;SDS011;41913;51.030;3.706;2023-05-07T04:48:15;1.63;;;1.35;;
56045;SDS011;41913;51.030;3.706;2023-05-07T04:50:41;3.10;;;1.52;;
56045;SDS011;41913;51.030;3.706;2023-05-07T04:53:07;2.75;;;1.27;;
56045;SDS011;41913;51.030;3.706;2023-05-07T04:55:32;2.72;;;1.67;;
56045;SDS011;41913;51.030;3.706;2023-05-07T04:57:58;1.13;;;1.05;;
56045;SDS011;41913;51.030;3.706;2023-05-07T05:00:26;1.05;;;1.05;;
56045;SDS011;41913;51.030;3.706;2023-05-07T05:02:51;1.90;;;1.40;;
56045;SDS011;41913;51.030;3.706;2023-05-07T05:05:17;3.45;;;1.55;;
56045;SDS011;41913;51.030;3.706;2023-05-07T05:07:43;2.78;;;1.52;;
56045;SDS011;41913;51.030;3.706;2023-05-07T05:10:10;1.40;;;1.30;;
56045;SDS011;41913;51.030;3.706;2023-05-07T05:12:36;1.75;;;1.45;;
56045;SDS011;41913;51.030;3.706;2023-05-07T05:15:01;1.63;;;1.00;;
56045;SDS011;41913;51.030;3.706;2023-05-07T05:17:27;1.80;;;1.23;;
56045;SDS011;41913;51.030;3.706;2023-05-07T05:19:53;1.70;;;1.30;;
56045;SDS011;41913;51.030;3.706;2023-05-07T05:22:19;0.95;;;0.95;;
56045;SDS011;41913;51.030;3.706;2023-05-07T05:24:44;1.90;;;1.48;;
56045;SDS011;41913;51.030;3.706;2023-05-07T05:27:10;3.05;;;1.52;;
56045;SDS011;41913;51.030;3.706;2023-05-07T05:29:36;4.05;;;2.10;;
56045;SDS011;41913;51.030;3.706;2023-05-07T05:32:02;2.95;;;1.85;;
56045;SDS011;41913;51.030;3.706;2023-05-07T05:34:28;6.80;;;1.75;;
56045;SDS011;41913;51.030;3.706;2023-05-07T05:36:54;5.88;;;2.50;;
56045;SDS011;41913;51.030;3.706;2023-05-07T05:39:20;6.80;;;2.00;;
56045;SDS011;41913;51.030;3.706;2023-05-07T05:41:46;15.57;;;3.50;;
56045;SDS011;41913;51.030;3.706;2023-05-07T05:44:12;19.17;;;2.75;;
56045;SDS011;41913;51.030;3.706;2023-05-07T05:46:37;17.52;;;2.88;;
56045;SDS011;41913;51.030;3.706;2023-05-07T05:49:03;13.98;;;2.65;;
56045;SDS011;41913;51.030;3.706;2023-05-07T05:51:29;12.18;;;2.40;;
56045;SDS011;41913;51.030;3.706;2023-05-07T05:53:55;12.50;;;2.50;;
56045;SDS011;41913;51.030;3.706;2023-05-07T05:56:21;10.35;;;2.45;;
56045;SDS011;41913;51.030;3.706;2023-05-07T05:58:46;12.07;;;2.33;;
56045;SDS011;41913;51.030;3.706;2023-05-07T06:01:12;12.93;;;3.83;;
56045;SDS011;41913;51.030;3.706;2023-05-07T06:03:38;14.77;;;3.13;;
56045;SDS011;41913;51.030;3.706;2023-05-07T06:06:04;11.10;;;2.97;;
56045;SDS011;41913;51.030;3.706;2023-05-07T06:08:29;10.38;;;3.08;;
56045;SDS011;41913;51.030;3.706;2023-05-07T06:10:55;3.50;;;2.00;;
56045;SDS011;41913;51.030;3.706;2023-05-07T06:13:22;5.00;;;2.83;;
56045;SDS011;41913;51.030;3.706;2023-05-07T06:15:48;9.13;;;2.88;;
56045;SDS011;41913;51.030;3.706;2023-05-07T06:18:15;7.28;;;2.70;;
56045;SDS011;41913;51.030;3.706;2023-05-07T06:20:40;3.20;;;2.58;;
56045;SDS011;41913;51.030;3.706;2023-05-07T06:23:06;10.10;;;2.72;;
56045;SDS011;41913;51.030;3.706;2023-05-07T06:25:32;6.78;;;3.30;;
56045;SDS011;41913;51.030;3.706;2023-05-07T06:27:57;3.17;;;2.63;;
56045;SDS011;41913;51.030;3.706;2023-05-07T06:30:23;7.78;;;2.80;;
56045;SDS011;41913;51.030;3.706;2023-05-07T06:32:49;4.57;;;2.28;;
56045;SDS011;41913;51.030;3.706;2023-05-07T06:35:14;6.22;;;3.45;;
56045;SDS011;41913;51.030;3.706;2023-05-07T06:37:41;7.13;;;3.45;;
56045;SDS011;41913;51.030;3.706;2023-05-07T06:40:08;5.53;;;2.35;;
56045;SDS011;41913;51.030;3.706;2023-05-07T06:42:37;6.53;;;2.60;;
56045;SDS011;41913;51.030;3.706;2023-05-07T06:45:03;3.97;;;2.25;;
56045;SDS011;41913;51.030;3.706;2023-05-07T06:47:29;5.18;;;2.30;;
56045;SDS011;41913;51.030;3.706;2023-05-07T06:49:55;2.90;;;2.70;;
56045;SDS011;41913;51.030;3.706;2023-05-07T06:52:21;2.58;;;2.17;;
56045;SDS011;41913;51.030;3.706;2023-05-07T06:54:46;5.45;;;2.55;;
56045;SDS011;41913;51.030;3.706;2023-05-07T06:57:12;8.75;;;2.33;;
56045;SDS011;41913;51.030;3.706;2023-05-07T06:59:38;2.60;;;2.40;;
56045;SDS011;41913;51.030;3.706;2023-05-07T07:02:03;2.35;;;1.90;;
56045;SDS011;41913;51.030;3.706;2023-05-07T07:04:29;3.90;;;1.83;;
56045;SDS011;41913;51.030;3.706;2023-05-07T07:06:56;6.30;;;2.90;;
56045;SDS011;41913;51.030;3.706;2023-05-07T07:09:22;2.85;;;2.00;;
56045;SDS011;41913;51.030;3.706;2023-05-07T07:11:47;2.78;;;2.53;;
56045;SDS011;41913;51.030;3.706;2023-05-07T07:14:13;4.75;;;2.33;;
56045;SDS011;41913;51.030;3.706;2023-05-07T07:16:39;2.55;;;2.03;;
56045;SDS011;41913;51.030;3.706;2023-05-07T07:19:05;5.47;;;3.63;;
56045;SDS011;41913;51.030;3.706;2023-05-07T07:21:30;3.15;;;2.20;;
56045;SDS011;41913;51.030;3.706;2023-05-07T07:23:57;4.03;;;2.55;;
56045;SDS011;41913;51.030;3.706;2023-05-07T07:26:22;5.60;;;2.08;;
56045;SDS011;41913;51.030;3.706;2023-05-07T07:28:48;4.03;;;2.28;;
56045;SDS011;41913;51.030;3.706;2023-05-07T07:31:14;3.78;;;2.45;;
56045;SDS011;41913;51.030;3.706;2023-05-07T07:33:40;3.33;;;2.22;;
56045;SDS011;41913;51.030;3.706;2023-05-07T07:36:06;6.55;;;2.55;;
56045;SDS011;41913;51.030;3.706;2023-05-07T07:38:32;7.25;;;2.70;;
56045;SDS011;41913;51.030;3.706;2023-05-07T07:40:59;3.20;;;2.55;;
56045;SDS011;41913;51.030;3.706;2023-05-07T07:43:25;4.85;;;2.95;;
56045;SDS011;41913;51.030;3.706;2023-05-07T07:45:51;4.18;;;2.47;;
56045;SDS011;41913;51.030;3.706;2023-05-07T07:48:16;7.72;;;2.85;;
56045;SDS011;41913;51.030;3.706;2023-05-07T07:50:42;5.78;;;2.40;;
56045;SDS011;41913;51.030;3.706;2023-05-07T07:53:08;3.03;;;2.30;;
56045;SDS011;41913;51.030;3.706;2023-05-07T07:55:37;3.08;;;2.00;;
56045;SDS011;41913;51.030;3.706;2023-05-07T07:58:03;2.90;;;2.17;;
56045;SDS011;41913;51.030;3.706;2023-05-07T08:00:29;3.03;;;1.90;;
56045;SDS011;41913;51.030;3.706;2023-05-07T08:02:55;3.65;;;2.40;;
56045;SDS011;41913;51.030;3.706;2023-05-07T08:05:20;2.95;;;2.25;;
56045;SDS011;41913;51.030;3.706;2023-05-07T08:07:47;3.83;;;2.08;;
56045;SDS011;41913;51.030;3.706;2023-05-07T08:10:17;5.13;;;2.33;;
56045;SDS011;41913;51.030;3.706;2023-05-07T08:12:46;2.83;;;2.17;;
56045;SDS011;41913;51.030;3.706;2023-05-07T08:15:15;5.70;;;2.10;;
56045;SDS011;41913;51.030;3.706;2023-05-07T08:17:42;2.80;;;1.98;;
56045;SDS011;41913;51.030;3.706;2023-05-07T08:20:08;4.70;;;2.05;;
56045;SDS011;41913;51.030;3.706;2023-05-07T08:22:34;4.90;;;1.90;;
56045;SDS011;41913;51.030;3.706;2023-05-07T08:25:01;3.47;;;2.03;;
56045;SDS011;41913;51.030;3.706;2023-05-07T08:27:27;3.08;;;2.17;;
56045;SDS011;41913;51.030;3.706;2023-05-07T08:29:53;2.92;;;2.00;;
56045;SDS011;41913;51.030;3.706;2023-05-07T08:32:18;3.85;;;2.13;;
56045;SDS011;41913;51.030;3.706;2023-05-07T08:34:44;3.78;;;2.17;;
56045;SDS011;41913;51.030;3.706;2023-05-07T08:37:10;5.40;;;2.40;;
56045;SDS011;41913;51.030;3.706;2023-05-07T08:39:36;4.50;;;2.22;;
56045;SDS011;41913;51.030;3.706;2023-05-07T08:42:01;3.67;;;2.22;;
56045;SDS011;41913;51.030;3.706;2023-05-07T08:44:34;3.22;;;1.95;;
56045;SDS011;41913;51.030;3.706;2023-05-07T08:47:02;3.22;;;2.17;;
56045;SDS011;41913;51.030;3.706;2023-05-07T08:49:28;5.10;;;2.10;;
56045;SDS011;41913;51.030;3.706;2023-05-07T08:51:53;2.67;;;1.83;;
56045;SDS011;41913;51.030;3.706;2023-05-07T08:54:21;2.80;;;2.10;;
56045;SDS011;41913;51.030;3.706;2023-05-07T08:56:47;5.80;;;2.63;;
56045;SDS011;41913;51.030;3.706;2023-05-07T08:59:13;2.40;;;2.30;;
56045;SDS011;41913;51.030;3.706;2023-05-07T09:01:39;2.63;;;2.00;;
56045;SDS011;41913;51.030;3.706;2023-05-07T09:04:04;4.57;;;2.53;;
56045;SDS011;41913;51.030;3.706;2023-05-07T09:06:33;5.03;;;1.90;;
56045;SDS011;41913;51.030;3.706;2023-05-07T09:09:00;3.83;;;1.92;;
56045;SDS011;41913;51.030;3.706;2023-05-07T09:11:26;4.50;;;2.53;;
56045;SDS011;41913;51.030;3.706;2023-05-07T09:13:55;1.80;;;1.67;;
56045;SDS011;41913;51.030;3.706;2023-05-07T09:16:23;5.45;;;2.28;;
56045;SDS011;41913;51.030;3.706;2023-05-07T09:18:50;2.40;;;2.20;;
56045;SDS011;41913;51.030;3.706;2023-05-07T09:21:17;2.08;;;1.88;;
56045;SDS011;41913;51.030;3.706;2023-05-07T09:23:44;2.45;;;2.13;;
56045;SDS011;41913;51.030;3.706;2023-05-07T09:26:10;2.50;;;1.80;;
56045;SDS011;41913;51.030;3.706;2023-05-07T09:28:40;4.07;;;2.05;;
56045;SDS011;41913;51.030;3.706;2023-05-07T09:31:07;3.95;;;2.00;;
56045;SDS011;41913;51.030;3.706;2023-05-07T09:33:33;6.93;;;2.20;;
56045;SDS011;41913;51.030;3.706;2023-05-07T09:36:03;7.43;;;2.50;;
56045;SDS011;41913;51.030;3.706;2023-05-07T09:38:30;5.82;;;2.25;;
56045;SDS011;41913;51.030;3.706;2023-05-07T09:41:03;2.42;;;1.75;;
56045;SDS011;41913;51.030;3.706;2023-05-07T09:43:37;3.55;;;2.17;;
56045;SDS011;41913;51.030;3.706;2023-05-07T09:46:13;2.38;;;1.60;;
56045;SDS011;41913;51.030;3.706;2023-05-07T09:48:42;1.80;;;1.70;;
56045;SDS011;41913;51.030;3.706;2023-05-07T09:51:15;4.18;;;2.00;;
56045;SDS011;41913;51.030;3.706;2023-05-07T09:53:52;3.45;;;1.67;;
56045;SDS011;41913;51.030;3.706;2023-05-07T09:56:19;5.45;;;2.70;;
56045;SDS011;41913;51.030;3.706;2023-05-07T09:58:46;3.15;;;1.95;;
56045;SDS011;41913;51.030;3.706;2023-05-07T10:01:12;6.05;;;1.92;;
56045;SDS011;41913;51.030;3.706;2023-05-07T10:03:41;2.45;;;2.20;;
56045;SDS011;41913;51.030;3.706;2023-05-07T10:06:09;2.35;;;2.13;;
56045;SDS011;41913;51.030;3.706;2023-05-07T10:08:36;5.70;;;2.33;;
56045;SDS011;41913;51.030;3.706;2023-05-07T10:11:03;4.75;;;2.38;;
56045;SDS011;41913;51.030;3.706;2023-05-07T10:13:30;7.10;;;2.25;;
56045;SDS011;41913;51.030;3.706;2023-05-07T10:15:58;5.20;;;2.20;;
56045;SDS011;41913;51.030;3.706;2023-05-07T10:18:25;2.15;;;1.75;;
56045;SDS011;41913;51.030;3.706;2023-05-07T10:20:54;3.22;;;1.92;;
56045;SDS011;41913;51.030;3.706;2023-05-07T10:23:31;2.05;;;1.80;;
56045;SDS011;41913;51.030;3.706;2023-05-07T10:25:58;3.08;;;2.08;;
56045;SDS011;41913;51.030;3.706;2023-05-07T10:28:30;4.28;;;1.73;;
56045;SDS011;41913;51.030;3.706;2023-05-07T10:34:02;3.35;;;1.60;;
56045;SDS011;41913;51.030;3.706;2023-05-07T10:36:36;5.53;;;1.38;;
56045;SDS011;41913;51.030;3.706;2023-05-07T10:39:02;3.00;;;1.45;;
56045;SDS011;41913;51.030;3.706;2023-05-07T10:41:28;2.45;;;1.60;;
56045;SDS011;41913;51.030;3.706;2023-05-07T10:43:53;1.77;;;1.67;;
56045;SDS011;41913;51.030;3.706;2023-05-07T10:46:20;2.25;;;2.00;;
56045;SDS011;41913;51.030;3.706;2023-05-07T10:51:29;1.73;;;1.20;;
56045;SDS011;41913;51.030;3.706;2023-05-07T10:56:35;4.10;;;1.45;;
56045;SDS011;41913;51.030;3.706;2023-05-07T11:01:56;1.27;;;1.17;;
56045;SDS011;41913;51.030;3.706;2023-05-07T11:04:23;2.85;;;1.70;;
56045;SDS011;41913;51.030;3.706;2023-05-07T11:15:03;1.77;;;1.25;;
56045;SDS011;41913;51.030;3.706;2023-05-07T11:17:32;1.02;;;0.98;;
56045;SDS011;41913;51.030;3.706;2023-05-07T11:20:02;2.40;;;1.58;;
56045;SDS011;41913;51.030;3.706;2023-05-07T11:25:04;2.83;;;1.30;;
56045;SDS011;41913;51.030;3.706;2023-05-07T11:27:32;0.90;;;0.90;;
56045;SDS011;41913;51.030;3.706;2023-05-07T11:29:58;0.82;;;0.82;;
56045;SDS011;41913;51.030;3.706;2023-05-07T11:32:29;1.35;;;1.13;;
56045;SDS011;41913;51.030;3.706;2023-05-07T11:34:59;2.05;;;1.20;;
56045;SDS011;41913;51.030;3.706;2023-05-07T11:37:26;3.22;;;1.10;;
56045;SDS011;41913;51.030;3.706;2023-05-07T11:40:07;1.08;;;1.08;;
56045;SDS011;41913;51.030;3.706;2023-05-07T11:42:35;0.95;;;0.95;;
56045;SDS011;41913;51.030;3.706;2023-05-07T11:45:05;2.05;;;1.08;;
56045;SDS011;41913;51.030;3.706;2023-05-07T11:47:32;1.67;;;1.58;;
56045;SDS011;41913;51.030;3.706;2023-05-07T11:50:03;1.50;;;1.27;;
56045;SDS011;41913;51.030;3.706;2023-05-07T11:52:33;2.15;;;1.60;;
56045;SDS011;41913;51.030;3.706;2023-05-07T11:54:59;2.17;;;1.48;;
56045;SDS011;41913;51.030;3.706;2023-05-07T11:57:26;1.38;;;1.27;;
56045;SDS011;41913;51.030;3.706;2023-05-07T11:59:56;1.60;;;1.40;;
56045;SDS011;41913;51.030;3.706;2023-05-07T12:02:22;1.85;;;1.23;;
56045;SDS011;41913;51.030;3.706;2023-05-07T12:04:50;3.88;;;1.67;;
56045;SDS011;41913;51.030;3.706;2023-05-07T12:07:16;2.58;;;1.58;;
56045;SDS011;41913;51.030;3.706;2023-05-07T12:09:43;1.80;;;1.70;;
56045;SDS011;41913;51.030;3.706;2023-05-07T12:12:11;2.38;;;1.27;;
56045;SDS011;41913;51.030;3.706;2023-05-07T12:14:40;1.42;;;1.33;;
56045;SDS011;41913;51.030;3.706;2023-05-07T12:17:07;2.28;;;1.65;;
56045;SDS011;41913;51.030;3.706;2023-05-07T12:19:35;2.53;;;1.85;;
56045;SDS011;41913;51.030;3.706;2023-05-07T12:22:04;1.77;;;1.50;;
56045;SDS011;41913;51.030;3.706;2023-05-07T12:27:13;1.33;;;1.20;;
56045;SDS011;41913;51.030;3.706;2023-05-07T12:29:39;4.97;;;1.73;;
56045;SDS011;41913;51.030;3.706;2023-05-07T12:32:15;3.38;;;1.55;;
56045;SDS011;41913;51.030;3.706;2023-05-07T12:34:42;2.67;;;1.77;;
56045;SDS011;41913;51.030;3.706;2023-05-07T12:37:08;2.25;;;1.20;;
56045;SDS011;41913;51.030;3.706;2023-05-07T12:39:34;2.03;;;1.73;;
56045;SDS011;41913;51.030;3.706;2023-05-07T12:41:59;1.67;;;1.45;;
56045;SDS011;41913;51.030;3.706;2023-05-07T12:44:29;1.60;;;1.48;;
56045;SDS011;41913;51.030;3.706;2023-05-07T12:46:56;2.70;;;1.70;;
56045;SDS011;41913;51.030;3.706;2023-05-07T12:49:22;1.65;;;1.40;;
56045;SDS011;41913;51.030;3.706;2023-05-07T12:51:49;2.30;;;2.08;;
56045;SDS011;41913;51.030;3.706;2023-05-07T12:54:28;1.58;;;1.42;;
56045;SDS011;41913;51.030;3.706;2023-05-07T12:57:15;1.90;;;1.80;;
56045;SDS011;41913;51.030;3.706;2023-05-07T12:59:45;1.77;;;1.48;;
56045;SDS011;41913;51.030;3.706;2023-05-07T13:02:11;1.73;;;1.40;;
56045;SDS011;41913;51.030;3.706;2023-05-07T13:04:36;1.70;;;1.60;;
56045;SDS011;41913;51.030;3.706;2023-05-07T13:07:02;1.92;;;1.50;;
56045;SDS011;41913;51.030;3.706;2023-05-07T13:09:28;1.80;;;1.70;;
56045;SDS011;41913;51.030;3.706;2023-05-07T13:11:54;3.05;;;1.92;;
56045;SDS011;41913;51.030;3.706;2023-05-07T13:14:20;3.70;;;2.05;;
56045;SDS011;41913;51.030;3.706;2023-05-07T13:16:46;2.63;;;1.40;;
56045;SDS011;41913;51.030;3.706;2023-05-07T13:19:12;1.67;;;1.58;;
56045;SDS011;41913;51.030;3.706;2023-05-07T13:21:38;5.47;;;1.73;;
56045;SDS011;41913;51.030;3.706;2023-05-07T13:24:04;3.47;;;1.70;;
56045;SDS011;41913;51.030;3.706;2023-05-07T13:26:30;1.60;;;1.50;;
56045;SDS011;41913;51.030;3.706;2023-05-07T13:28:56;2.58;;;1.20;;
56045;SDS011;41913;51.030;3.706;2023-05-07T13:31:22;3.90;;;1.42;;
56045;SDS011;41913;51.030;3.706;2023-05-07T13:33:49;2.08;;;1.50;;
56045;SDS011;41913;51.030;3.706;2023-05-07T13:36:15;1.67;;;1.58;;
56045;SDS011;41913;51.030;3.706;2023-05-07T13:38:40;2.95;;;1.90;;
56045;SDS011;41913;51.030;3.706;2023-05-07T13:41:06;1.50;;;1.40;;
56045;SDS011;41913;51.030;3.706;2023-05-07T13:43:31;1.75;;;1.65;;
56045;SDS011;41913;51.030;3.706;2023-05-07T13:45:58;1.98;;;1.60;;
56045;SDS011;41913;51.030;3.706;2023-05-07T13:48:25;1.60;;;1.50;;
56045;SDS011;41913;51.030;3.706;2023-05-07T13:50:50;1.55;;;1.45;;
56045;SDS011;41913;51.030;3.706;2023-05-07T13:53:16;2.78;;;1.52;;
56045;SDS011;41913;51.030;3.706;2023-05-07T13:55:43;1.48;;;1.38;;
56045;SDS011;41913;51.030;3.706;2023-05-07T13:58:09;1.77;;;1.67;;
56045;SDS011;41913;51.030;3.706;2023-05-07T14:00:35;0.98;;;0.98;;
56045;SDS011;41913;51.030;3.706;2023-05-07T14:03:00;1.85;;;1.75;;
56045;SDS011;41913;51.030;3.706;2023-05-07T14:05:26;0.95;;;0.95;;
56045;SDS011;41913;51.030;3.706;2023-05-07T14:07:53;1.27;;;1.27;;
56045;SDS011;41913;51.030;3.706;2023-05-07T14:10:19;1.60;;;1.50;;
56045;SDS011;41913;51.030;3.706;2023-05-07T14:12:45;1.83;;;1.73;;
56045;SDS011;41913;51.030;3.706;2023-05-07T14:15:11;1.83;;;1.67;;
56045;SDS011;41913;51.030;3.706;2023-05-07T14:17:37;3.70;;;1.90;;
56045;SDS011;41913;51.030;3.706;2023-05-07T14:20:03;1.88;;;1.77;;
56045;SDS011;41913;51.030;3.706;2023-05-07T14:22:31;1.48;;;1.35;;
56045;SDS011;41913;51.030;3.706;2023-05-07T14:24:57;2.60;;;1.50;;
56045;SDS011;41913;51.030;3.706;2023-05-07T14:27:22;2.03;;;1.83;;
56045;SDS011;41913;51.030;3.706;2023-05-07T14:29:48;1.90;;;1.80;;
56045;SDS011;41913;51.030;3.706;2023-05-07T14:32:18;2.15;;;1.42;;
56045;SDS011;41913;51.030;3.706;2023-05-07T14:34:45;1.42;;;1.40;;
56045;SDS011;41913;51.030;3.706;2023-05-07T14:37:11;1.65;;;1.40;;
56045;SDS011;41913;51.030;3.706;2023-05-07T14:39:37;1.35;;;1.15;;
56045;SDS011;41913;51.030;3.706;2023-05-07T14:42:03;1.50;;;1.40;;
56045;SDS011;41913;51.030;3.706;2023-05-07T14:44:29;1.80;;;1.33;;
56045;SDS011;41913;51.030;3.706;2023-05-07T14:46:56;2.38;;;1.40;;
56045;SDS011;41913;51.030;3.706;2023-05-07T14:49:22;1.75;;;1.63;;
56045;SDS011;41913;51.030;3.706;2023-05-07T14:51:48;1.63;;;1.52;;
56045;SDS011;41913;51.030;3.706;2023-05-07T14:54:14;4.22;;;1.40;;
56045;SDS011;41913;51.030;3.706;2023-05-07T14:56:40;2.42;;;1.33;;
56045;SDS011;41913;51.030;3.706;2023-05-07T14:59:07;2.00;;;1.40;;
56045;SDS011;41913;51.030;3.706;2023-05-07T15:01:34;1.30;;;1.20;;
56045;SDS011;41913;51.030;3.706;2023-05-07T15:04:00;1.38;;;1.27;;
56045;SDS011;41913;51.030;3.706;2023-05-07T15:06:27;1.95;;;1.33;;
56045;SDS011;41913;51.030;3.706;2023-05-07T15:08:54;1.50;;;1.50;;